ADDS METAR Data INFO
IDs: Format: Raw Decoded Include TAF

Data at: 2254 UTC 22 Jun 2018

KCVW 222245Z AUTO 21010G17KT 10SM CLR 30/25 A2987 RMK A01
KCVW 222225Z AUTO 20011G18KT 10SM CLR 30/25 A2987 RMK A01
KCVW 222205Z AUTO 21011G18KT 10SM CLR 30/25 A2988 RMK A01
KCVW 222145Z AUTO 20013KT 10SM CLR 30/26 A2988 RMK A01
KCVW 222125Z AUTO 20012G18KT 10SM CLR 30/26 A2988 RMK A01
KCVW 222105Z AUTO 21012G17KT 10SM CLR 30/26 A2988 RMK A01
KCVW 222045Z AUTO 21012KT 10SM CLR 30/26 A2989 RMK A01
KCVW 222025Z AUTO 20012KT 10SM CLR 30/26 A2989 RMK A01
KCVW 222005Z AUTO 21011G17KT 10SM CLR 30/26 A2990 RMK A01
KCVW 221945Z AUTO 21010G16KT 10SM CLR 30/26 A2991 RMK A01
KCVW 221925Z AUTO 21010KT 10SM FEW017 30/26 A2992 RMK A01
KCVW 221905Z AUTO 21010G16KT 10SM CLR 30/26 A2993 RMK A01
KCVW 221845Z AUTO 21011KT 10SM CLR 30/26 A2994 RMK A01
KCVW 221825Z AUTO 22009G15KT 10SM CLR 30/26 A2995 RMK A01
KCVW 221805Z AUTO 22011G16KT 9SM CLR 30/26 A2995 RMK A01
KCVW 221745Z AUTO 22012KT 10SM FEW017 FEW023 29/26 A2996 RMK A01
KCVW 221725Z AUTO 22009KT 10SM FEW018 FEW023 29/26 A2996 RMK A01
KCVW 221705Z AUTO 22012KT 10SM FEW017 29/26 A2996 RMK A01
KCVW 221645Z AUTO 22009G16KT 10SM FEW017 29/26 A2995 RMK A01
KCVW 221625Z AUTO 22008G17KT 10SM FEW017 30/26 A2995 RMK A01
KCVW 221605Z AUTO 22010G19KT 9SM BKN017 29/26 A2995 RMK A01
KCVW 221545Z AUTO 22011G18KT 9SM BKN017 29/26 A2994 RMK A01
KCVW 221525Z AUTO 22010G17KT 10SM FEW014 29/26 A2994 RMK A01
KCVW 221505Z AUTO 22011KT 10SM CLR 29/26 A2994 RMK A01
KCVW 221445Z AUTO 22012G17KT 9SM CLR 29/26 A2994 RMK A01
KCVW 221425Z AUTO 21009G16KT 9SM FEW014 28/26 A2993 RMK A01
KCVW 221405Z AUTO 22011KT 9SM FEW015 28/26 A2993 RMK A01
KCVW 221345Z AUTO 21010G15KT 10SM FEW014 28/26 A2992 RMK A01
KCVW 221325Z AUTO 21010G16KT 9SM CLR 28/26 A2992 RMK A01
KCVW 221305Z AUTO 21011G17KT 9SM CLR 28/26 A2992 RMK A01
KCVW 221245Z AUTO 21011G16KT 9SM CLR 28/26 A2991 RMK A01
KCVW 221225Z AUTO 22008G15KT 9SM CLR 28/26 A2991 RMK A01
KCVW 221205Z AUTO 21009G15KT 9SM CLR 28/26 A2991 RMK A01
KCVW 221145Z AUTO 21009G14KT 8SM CLR 27/26 A2990 RMK A01
KCVW 221125Z AUTO 21010KT 9SM FEW014 27/26 A2990 RMK A01
KCVW 221105Z AUTO 22009KT 10SM CLR 27/26 A2990 RMK A01
KCVW 221045Z AUTO 21009KT 10SM CLR 27/26 A2990 RMK A01
KCVW 221025Z AUTO 22011KT 10SM CLR 27/26 A2990 RMK A01
KCVW 221005Z AUTO 21009KT 9SM CLR 27/26 A2989 RMK A01
KCVW 220945Z AUTO 21010KT 10SM CLR 27/26 A2989 RMK A01
KCVW 220925Z AUTO 21009G15KT 10SM FEW037 27/26 A2989 RMK A01
KCVW 220905Z AUTO 21009KT 10SM FEW032 28/26 A2989 RMK A01
KCVW 220845Z AUTO 22008G14KT 10SM CLR 28/26 A2990 RMK A01
KCVW 220825Z AUTO 21008G14KT 9SM SCT012 SCT023 SCT033 27/26 A2990 RMK A01
KCVW 220805Z AUTO 21010KT 10SM FEW014 FEW023 FEW032 27/26 A2990 RMK A01
KCVW 220745Z AUTO 21009KT 10SM CLR 27/26 A2990 RMK A01
KCVW 220725Z AUTO 21007KT 10SM FEW015 FEW040 27/26 A2990 RMK A01
KCVW 220705Z AUTO 21008KT 10SM FEW016 FEW029 FEW040 27/25 A2991 RMK A01
KCVW 220645Z AUTO 20008KT 10SM FEW015 27/25 A2991 RMK A01
KCVW 220625Z AUTO 20008KT 10SM FEW016 FEW027 27/25 A2991 RMK A01
KCVW 220605Z AUTO 20008KT 10SM FEW016 27/25 A2991 RMK A01
KCVW 220545Z AUTO 21006KT 10SM SCT016 27/25 A2992 RMK A01
KCVW 220525Z AUTO 20007KT 8SM FEW018 27/25 A2992 RMK A01
KCVW 220505Z AUTO 21008KT 10SM FEW018 FEW031 27/25 A2992 RMK A01
KCVW 220445Z AUTO 20007KT 10SM FEW033 27/25 A2993 RMK A01
KCVW 220425Z AUTO 21008KT 10SM CLR 27/25 A2993 RMK A01
KCVW 220405Z AUTO 21005KT 10SM CLR 27/25 A2993 RMK A01
KCVW 220345Z AUTO 7.16666707KT 10SM CLR 27/25 A2993 RMK A01
KCVW 220325Z AUTO 20006KT 10SM FEW021 FEW026 SCT037 27/25 A2992 RMK A01
KCVW 220305Z AUTO 21005KT 10SM SCT020 BKN026 BKN036 27/25 A2992 RMK A01
KCVW 220245Z AUTO 21005KT 10SM FEW017 SCT023 BKN028 27/25 A2991 RMK A01
KCVW 220225Z AUTO 22004KT 10SM SCT017 SCT022 BKN029 27/25 A2991 RMK A01
KCVW 220205Z AUTO 20006KT 10SM SCT019 BKN025 BKN036 27/25 A2990 RMK A01
KCVW 220145Z AUTO 21004KT 9SM CLR 27/25 A2990 RMK A01
KCVW 220125Z AUTO 21004KT 9SM FEW020 28/25 A2990 RMK A01
KCVW 220105Z AUTO 22003KT 9SM FEW020 28/25 A2990 RMK A01
KCVW 220045Z AUTO 22004KT 9SM FEW020 28/25 A2990 RMK A01
KCVW 220020Z AUTO 22004KT 9SM SCT021 BKN028 28/25 A2989 RMK A01
KCVW 220005Z AUTO 22005KT 9SM SCT020 28/25 A2989 RMK A01
KCVW 212345Z AUTO VRB05KT 9SM CLR 28/25 A2989 RMK A01
KCVW 212325Z AUTO 21006KT 9SM CLR 28/25 A2988 RMK A01
KCVW 212305Z AUTO 21007KT 9SM CLR 28/25 A2989 RMK A01
KCVW 212245Z AUTO 21007KT 9SM CLR 29/25 A2989 RMK A01
KCVW 212225Z AUTO 22005KT 9SM CLR 29/25 A2989 RMK A01
KCVW 212205Z AUTO 22006KT 9SM CLR 29/25 A2989 RMK A01
KCVW 212145Z AUTO 22006KT 9SM CLR 29/25 A2989 RMK A01
KCVW 212125Z AUTO 22006KT 10SM CLR 28/25 A2990 RMK A01
KCVW 212105Z AUTO 21007KT 10SM CLR 28/25 A2990 RMK A01
KCVW 212045Z AUTO 20009KT 9SM CLR 29/25 A2990 RMK A01
KCVW 212025Z AUTO 20007KT 9SM FEW018 29/25 A2991 RMK A01
KCVW 212005Z AUTO 19005KT 9SM CLR 29/25 A2992 RMK A01
KCVW 211945Z AUTO 19003KT 9SM CLR 29/26 A2993 RMK A01
KCVW 211925Z AUTO VRB03KT 10SM CLR 28/25 A2993 RMK A01
KCVW 211905Z AUTO 00000KT 10SM CLR 28/25 A2994 RMK A01
KCVW 211840Z AUTO 00000KT 10SM CLR 28/25 A2995 RMK A01
KCVW 211825Z AUTO 03005KT 10SM CLR 27/25 A2996 RMK A01
KCVW 211805Z AUTO 05004KT 10SM CLR 27/25 A2996 RMK A01
KCVW 211745Z AUTO 06006KT 10SM FEW015 SCT021 BKN034 26/25 A2996 RMK A01
KCVW 211725Z AUTO 03009KT 10SM BKN014 BKN020 OVC027 25/25 A2997 RMK A01
KCVW 211705Z AUTO 01005G11KT 9SM BKN011 BKN019 BKN055 26/25 A2997 RMK A01
KCVW 211645Z AUTO 21003KT 7SM FEW018 FEW022 SCT055 28/26 A2997 RMK A01
KCVW 211625Z AUTO 21003KT 6SM BR FEW019 FEW034 28/26 A2997 RMK A01
KCVW 211605Z AUTO 22004KT 7SM FEW018 SCT022 BKN035 28/26 A2996 RMK A01
KCVW 211545Z AUTO 20006KT 8SM FEW016 28/26 A2995 RMK A01
KCVW 211520Z AUTO 20007KT 8SM CLR 28/25 A2994 RMK A01
KCVW 211505Z AUTO 19007KT 9SM CLR 28/25 A2994 RMK A01
KCVW 211445Z AUTO 19008KT 8SM CLR 28/25 A2993 RMK A01
KCVW 211405Z AUTO 18009KT 9SM FEW031 29/26 A2992 RMK A01
KCVW 211345Z AUTO 18011KT 8SM FEW022 BKN031 BKN090 28/26 A2992 RMK A01
KCVW 211325Z AUTO 18010KT 6SM HZ FEW018 FEW022 FEW090 28/26 A2992 RMK A01
KCVW 211305Z AUTO 17009KT 8SM CLR 28/26 A2992 RMK A01
KCVW 211245Z AUTO 17008KT 8SM CLR 28/26 A2991 RMK A01
KCVW 211225Z AUTO 17007KT 8SM FEW031 FEW080 28/26 A2991 RMK A01
KCVW 211205Z AUTO 17007KT 8SM FEW080 28/26 A2991 RMK A01
KCVW 211145Z AUTO 17007KT 8SM FEW017 FEW029 FEW075 28/26 A2990 RMK A01
KCVW 211125Z AUTO 17007KT 10SM SCT016 SCT029 BKN070 28/26 A2990 RMK A01
KCVW 211105Z AUTO 18007KT 10SM FEW015 OVC070 28/26 A2989 RMK A01